sensor_id;sensor_type;location;lat;lon;timestamp;P1;durP1;ratioP1;P2;durP2;ratioP2
34982;SDS011;21187;50.976;13.720;2023-04-30T00:02:55;29.67;;;12.00;;
34982;SDS011;21187;50.976;13.720;2023-04-30T00:07:57;23.60;;;12.70;;
34982;SDS011;21187;50.976;13.720;2023-04-30T00:12:59;27.08;;;12.27;;
34982;SDS011;21187;50.976;13.720;2023-04-30T00:18:01;25.13;;;12.45;;
34982;SDS011;21187;50.976;13.720;2023-04-30T00:23:03;23.42;;;12.40;;
34982;SDS011;21187;50.976;13.720;2023-04-30T00:28:05;25.08;;;12.80;;
34982;SDS011;21187;50.976;13.720;2023-04-30T00:33:07;21.02;;;11.20;;
34982;SDS011;21187;50.976;13.720;2023-04-30T00:38:09;18.73;;;9.55;;
34982;SDS011;21187;50.976;13.720;2023-04-30T00:43:12;22.02;;;9.45;;
34982;SDS011;21187;50.976;13.720;2023-04-30T00:48:14;15.77;;;8.88;;
34982;SDS011;21187;50.976;13.720;2023-04-30T00:53:16;17.08;;;8.68;;
34982;SDS011;21187;50.976;13.720;2023-04-30T00:58:21;14.48;;;7.97;;
34982;SDS011;21187;50.976;13.720;2023-04-30T01:03:23;15.32;;;8.13;;
34982;SDS011;21187;50.976;13.720;2023-04-30T01:08:25;15.95;;;8.60;;
34982;SDS011;21187;50.976;13.720;2023-04-30T01:13:28;18.13;;;8.55;;
34982;SDS011;21187;50.976;13.720;2023-04-30T01:18:38;19.38;;;9.32;;
34982;SDS011;21187;50.976;13.720;2023-04-30T01:29:07;24.05;;;10.10;;
34982;SDS011;21187;50.976;13.720;2023-04-30T01:34:10;21.08;;;9.98;;
34982;SDS011;21187;50.976;13.720;2023-04-30T01:49:45;17.33;;;8.88;;
34982;SDS011;21187;50.976;13.720;2023-04-30T01:55:29;15.73;;;9.00;;
34982;SDS011;21187;50.976;13.720;2023-04-30T02:00:42;16.02;;;9.23;;
34982;SDS011;21187;50.976;13.720;2023-04-30T02:05:45;17.60;;;8.35;;
34982;SDS011;21187;50.976;13.720;2023-04-30T02:10:48;14.23;;;7.13;;
34982;SDS011;21187;50.976;13.720;2023-04-30T02:15:49;13.90;;;7.32;;
34982;SDS011;21187;50.976;13.720;2023-04-30T02:20:51;13.40;;;6.90;;
34982;SDS011;21187;50.976;13.720;2023-04-30T02:25:53;11.20;;;6.28;;
34982;SDS011;21187;50.976;13.720;2023-04-30T02:30:55;12.73;;;5.93;;
34982;SDS011;21187;50.976;13.720;2023-04-30T02:35:58;14.70;;;6.10;;
34982;SDS011;21187;50.976;13.720;2023-04-30T02:41:01;17.40;;;7.25;;
34982;SDS011;21187;50.976;13.720;2023-04-30T02:46:03;12.15;;;6.20;;
34982;SDS011;21187;50.976;13.720;2023-04-30T02:51:06;15.32;;;6.75;;
34982;SDS011;21187;50.976;13.720;2023-04-30T02:56:07;11.23;;;6.22;;
34982;SDS011;21187;50.976;13.720;2023-04-30T03:01:09;9.20;;;5.40;;
34982;SDS011;21187;50.976;13.720;2023-04-30T03:06:11;14.18;;;6.47;;
34982;SDS011;21187;50.976;13.720;2023-04-30T03:11:13;13.27;;;6.47;;
34982;SDS011;21187;50.976;13.720;2023-04-30T03:16:15;11.80;;;6.22;;
34982;SDS011;21187;50.976;13.720;2023-04-30T03:21:17;15.48;;;5.72;;
34982;SDS011;21187;50.976;13.720;2023-04-30T03:26:19;14.45;;;5.35;;
34982;SDS011;21187;50.976;13.720;2023-04-30T03:31:21;10.75;;;4.80;;
34982;SDS011;21187;50.976;13.720;2023-04-30T03:36:23;10.93;;;5.20;;
34982;SDS011;21187;50.976;13.720;2023-04-30T03:41:25;9.55;;;4.93;;
34982;SDS011;21187;50.976;13.720;2023-04-30T03:46:27;9.13;;;4.90;;
34982;SDS011;21187;50.976;13.720;2023-04-30T03:51:29;8.75;;;4.78;;
34982;SDS011;21187;50.976;13.720;2023-04-30T03:56:32;11.32;;;5.40;;
34982;SDS011;21187;50.976;13.720;2023-04-30T04:01:35;11.40;;;5.45;;
34982;SDS011;21187;50.976;13.720;2023-04-30T04:06:37;11.82;;;5.50;;
34982;SDS011;21187;50.976;13.720;2023-04-30T04:11:39;7.40;;;4.95;;
34982;SDS011;21187;50.976;13.720;2023-04-30T04:16:41;9.10;;;4.85;;
34982;SDS011;21187;50.976;13.720;2023-04-30T04:21:43;12.57;;;6.22;;
34982;SDS011;21187;50.976;13.720;2023-04-30T04:26:49;14.32;;;5.28;;
34982;SDS011;21187;50.976;13.720;2023-04-30T04:31:51;12.82;;;5.18;;
34982;SDS011;21187;50.976;13.720;2023-04-30T04:36:53;13.30;;;5.40;;
34982;SDS011;21187;50.976;13.720;2023-04-30T04:41:55;14.07;;;4.68;;
34982;SDS011;21187;50.976;13.720;2023-04-30T04:46:59;14.30;;;5.32;;
34982;SDS011;21187;50.976;13.720;2023-04-30T04:52:01;14.48;;;4.78;;
34982;SDS011;21187;50.976;13.720;2023-04-30T04:57:03;8.57;;;4.70;;
34982;SDS011;21187;50.976;13.720;2023-04-30T05:02:04;11.82;;;5.00;;
34982;SDS011;21187;50.976;13.720;2023-04-30T05:07:06;11.82;;;5.43;;
34982;SDS011;21187;50.976;13.720;2023-04-30T05:12:08;11.02;;;4.88;;
34982;SDS011;21187;50.976;13.720;2023-04-30T05:17:10;8.82;;;5.20;;
34982;SDS011;21187;50.976;13.720;2023-04-30T05:22:12;13.85;;;4.85;;
34982;SDS011;21187;50.976;13.720;2023-04-30T05:27:14;11.23;;;4.90;;
34982;SDS011;21187;50.976;13.720;2023-04-30T05:32:17;11.45;;;5.63;;
34982;SDS011;21187;50.976;13.720;2023-04-30T05:37:19;11.05;;;5.25;;
34982;SDS011;21187;50.976;13.720;2023-04-30T05:42:23;10.15;;;4.72;;
34982;SDS011;21187;50.976;13.720;2023-04-30T05:47:24;12.32;;;5.07;;
34982;SDS011;21187;50.976;13.720;2023-04-30T05:52:26;11.77;;;4.75;;
34982;SDS011;21187;50.976;13.720;2023-04-30T05:57:28;7.00;;;4.20;;
34982;SDS011;21187;50.976;13.720;2023-04-30T06:02:30;10.80;;;4.47;;
34982;SDS011;21187;50.976;13.720;2023-04-30T06:07:32;10.65;;;4.50;;
34982;SDS011;21187;50.976;13.720;2023-04-30T06:12:34;13.32;;;4.53;;
34982;SDS011;21187;50.976;13.720;2023-04-30T06:17:36;9.32;;;4.78;;
34982;SDS011;21187;50.976;13.720;2023-04-30T06:22:38;9.15;;;4.15;;
34982;SDS011;21187;50.976;13.720;2023-04-30T06:27:41;8.13;;;4.63;;
34982;SDS011;21187;50.976;13.720;2023-04-30T06:32:43;9.15;;;4.80;;
34982;SDS011;21187;50.976;13.720;2023-04-30T06:37:45;7.85;;;3.95;;
34982;SDS011;21187;50.976;13.720;2023-04-30T06:42:47;8.88;;;3.92;;
34982;SDS011;21187;50.976;13.720;2023-04-30T06:47:49;15.68;;;4.78;;
34982;SDS011;21187;50.976;13.720;2023-04-30T06:52:52;10.35;;;5.50;;
34982;SDS011;21187;50.976;13.720;2023-04-30T06:57:54;14.75;;;4.00;;
34982;SDS011;21187;50.976;13.720;2023-04-30T07:02:58;11.07;;;4.22;;
34982;SDS011;21187;50.976;13.720;2023-04-30T07:08:03;10.55;;;4.75;;
34982;SDS011;21187;50.976;13.720;2023-04-30T07:13:05;8.43;;;4.15;;
34982;SDS011;21187;50.976;13.720;2023-04-30T07:18:08;15.70;;;5.13;;
34982;SDS011;21187;50.976;13.720;2023-04-30T07:23:10;12.75;;;5.10;;
34982;SDS011;21187;50.976;13.720;2023-04-30T07:28:12;9.57;;;3.97;;
34982;SDS011;21187;50.976;13.720;2023-04-30T07:33:14;10.50;;;4.05;;
34982;SDS011;21187;50.976;13.720;2023-04-30T07:38:17;16.05;;;4.63;;
34982;SDS011;21187;50.976;13.720;2023-04-30T07:43:20;10.05;;;4.05;;
34982;SDS011;21187;50.976;13.720;2023-04-30T07:48:22;10.93;;;4.65;;
34982;SDS011;21187;50.976;13.720;2023-04-30T07:53:23;13.73;;;4.05;;
34982;SDS011;21187;50.976;13.720;2023-04-30T07:58:25;16.70;;;4.80;;
34982;SDS011;21187;50.976;13.720;2023-04-30T08:03:27;12.27;;;4.28;;
34982;SDS011;21187;50.976;13.720;2023-04-30T08:08:29;15.18;;;4.05;;
34982;SDS011;21187;50.976;13.720;2023-04-30T08:13:31;14.60;;;3.75;;
34982;SDS011;21187;50.976;13.720;2023-04-30T08:18:33;9.40;;;4.72;;
34982;SDS011;21187;50.976;13.720;2023-04-30T08:23:35;8.93;;;3.85;;
34982;SDS011;21187;50.976;13.720;2023-04-30T08:28:36;10.10;;;3.90;;
34982;SDS011;21187;50.976;13.720;2023-04-30T08:33:38;9.38;;;3.83;;
34982;SDS011;21187;50.976;13.720;2023-04-30T08:38:41;17.33;;;4.53;;
34982;SDS011;21187;50.976;13.720;2023-04-30T08:43:43;12.80;;;4.82;;
34982;SDS011;21187;50.976;13.720;2023-04-30T08:48:45;12.73;;;4.47;;
34982;SDS011;21187;50.976;13.720;2023-04-30T08:53:49;10.77;;;4.20;;
34982;SDS011;21187;50.976;13.720;2023-04-30T08:58:53;11.93;;;4.53;;
34982;SDS011;21187;50.976;13.720;2023-04-30T09:03:55;9.82;;;4.63;;
34982;SDS011;21187;50.976;13.720;2023-04-30T09:08:58;8.50;;;4.30;;
34982;SDS011;21187;50.976;13.720;2023-04-30T09:14:11;11.57;;;4.25;;
34982;SDS011;21187;50.976;13.720;2023-04-30T09:19:22;10.73;;;3.67;;
34982;SDS011;21187;50.976;13.720;2023-04-30T09:24:33;11.02;;;4.57;;
34982;SDS011;21187;50.976;13.720;2023-04-30T09:29:47;6.90;;;3.03;;
34982;SDS011;21187;50.976;13.720;2023-04-30T09:34:49;9.25;;;4.68;;
34982;SDS011;21187;50.976;13.720;2023-04-30T09:39:54;11.57;;;3.63;;
34982;SDS011;21187;50.976;13.720;2023-04-30T09:44:57;8.30;;;3.35;;
34982;SDS011;21187;50.976;13.720;2023-04-30T09:49:59;6.93;;;3.10;;
34982;SDS011;21187;50.976;13.720;2023-04-30T09:55:01;7.88;;;3.25;;
34982;SDS011;21187;50.976;13.720;2023-04-30T10:00:03;13.07;;;3.67;;
34982;SDS011;21187;50.976;13.720;2023-04-30T10:05:09;10.75;;;3.63;;
34982;SDS011;21187;50.976;13.720;2023-04-30T10:10:11;10.30;;;3.35;;
34982;SDS011;21187;50.976;13.720;2023-04-30T10:15:34;8.15;;;3.03;;
34982;SDS011;21187;50.976;13.720;2023-04-30T10:20:44;6.32;;;2.88;;
34982;SDS011;21187;50.976;13.720;2023-04-30T10:25:48;9.40;;;2.80;;
34982;SDS011;21187;50.976;13.720;2023-04-30T10:30:51;8.60;;;3.83;;
34982;SDS011;21187;50.976;13.720;2023-04-30T10:36:01;6.72;;;2.42;;
34982;SDS011;21187;50.976;13.720;2023-04-30T10:41:06;7.72;;;3.13;;
34982;SDS011;21187;50.976;13.720;2023-04-30T10:46:09;5.43;;;2.15;;
34982;SDS011;21187;50.976;13.720;2023-04-30T10:51:11;10.10;;;3.40;;
34982;SDS011;21187;50.976;13.720;2023-04-30T10:56:16;7.50;;;3.50;;
34982;SDS011;21187;50.976;13.720;2023-04-30T11:01:30;18.60;;;3.55;;
34982;SDS011;21187;50.976;13.720;2023-04-30T11:12:00;13.63;;;4.78;;
34982;SDS011;21187;50.976;13.720;2023-04-30T11:17:22;7.50;;;2.75;;
34982;SDS011;21187;50.976;13.720;2023-04-30T11:22:25;9.38;;;3.92;;
34982;SDS011;21187;50.976;13.720;2023-04-30T11:27:31;8.02;;;2.88;;
34982;SDS011;21187;50.976;13.720;2023-04-30T11:32:35;5.00;;;2.45;;
34982;SDS011;21187;50.976;13.720;2023-04-30T11:37:39;4.38;;;2.05;;
34982;SDS011;21187;50.976;13.720;2023-04-30T11:42:46;7.63;;;2.63;;
34982;SDS011;21187;50.976;13.720;2023-04-30T11:47:49;8.13;;;2.60;;
34982;SDS011;21187;50.976;13.720;2023-04-30T11:52:53;5.03;;;2.30;;
34982;SDS011;21187;50.976;13.720;2023-04-30T11:57:58;3.38;;;2.00;;
34982;SDS011;21187;50.976;13.720;2023-04-30T12:03:01;6.70;;;2.03;;
34982;SDS011;21187;50.976;13.720;2023-04-30T12:08:05;10.55;;;2.17;;
34982;SDS011;21187;50.976;13.720;2023-04-30T12:13:12;9.65;;;2.33;;
34982;SDS011;21187;50.976;13.720;2023-04-30T12:18:15;6.68;;;2.40;;
34982;SDS011;21187;50.976;13.720;2023-04-30T12:23:17;6.65;;;2.88;;
34982;SDS011;21187;50.976;13.720;2023-04-30T12:28:22;5.28;;;2.22;;
34982;SDS011;21187;50.976;13.720;2023-04-30T12:33:23;8.15;;;2.47;;
34982;SDS011;21187;50.976;13.720;2023-04-30T12:38:26;5.40;;;1.90;;
34982;SDS011;21187;50.976;13.720;2023-04-30T12:43:27;5.57;;;1.98;;
34982;SDS011;21187;50.976;13.720;2023-04-30T12:48:30;9.07;;;2.40;;
34982;SDS011;21187;50.976;13.720;2023-04-30T12:53:45;4.93;;;1.92;;
34982;SDS011;21187;50.976;13.720;2023-04-30T12:58:47;6.25;;;1.80;;
34982;SDS011;21187;50.976;13.720;2023-04-30T13:03:51;8.90;;;2.05;;
34982;SDS011;21187;50.976;13.720;2023-04-30T13:08:54;12.25;;;2.30;;
34982;SDS011;21187;50.976;13.720;2023-04-30T13:13:59;9.95;;;2.15;;
34982;SDS011;21187;50.976;13.720;2023-04-30T13:19:01;7.30;;;2.33;;
34982;SDS011;21187;50.976;13.720;2023-04-30T13:24:03;4.20;;;1.88;;
34982;SDS011;21187;50.976;13.720;2023-04-30T13:29:05;5.03;;;1.95;;
34982;SDS011;21187;50.976;13.720;2023-04-30T13:34:08;6.03;;;2.47;;
34982;SDS011;21187;50.976;13.720;2023-04-30T13:39:10;7.40;;;2.00;;
34982;SDS011;21187;50.976;13.720;2023-04-30T13:44:13;8.38;;;1.65;;
34982;SDS011;21187;50.976;13.720;2023-04-30T13:49:17;5.70;;;1.50;;
34982;SDS011;21187;50.976;13.720;2023-04-30T13:54:20;5.00;;;1.75;;
34982;SDS011;21187;50.976;13.720;2023-04-30T13:59:22;6.25;;;1.90;;
34982;SDS011;21187;50.976;13.720;2023-04-30T14:04:24;3.50;;;1.58;;
34982;SDS011;21187;50.976;13.720;2023-04-30T14:09:26;6.65;;;1.65;;
34982;SDS011;21187;50.976;13.720;2023-04-30T14:14:29;6.38;;;1.92;;
34982;SDS011;21187;50.976;13.720;2023-04-30T14:19:32;6.55;;;1.70;;
34982;SDS011;21187;50.976;13.720;2023-04-30T14:24:34;3.88;;;1.73;;
34982;SDS011;21187;50.976;13.720;2023-04-30T14:29:37;9.15;;;1.65;;
34982;SDS011;21187;50.976;13.720;2023-04-30T14:34:39;7.60;;;2.03;;
34982;SDS011;21187;50.976;13.720;2023-04-30T14:39:41;5.63;;;1.77;;
34982;SDS011;21187;50.976;13.720;2023-04-30T14:44:44;5.35;;;1.88;;
34982;SDS011;21187;50.976;13.720;2023-04-30T14:49:47;5.78;;;1.65;;
34982;SDS011;21187;50.976;13.720;2023-04-30T14:54:50;6.13;;;1.80;;
34982;SDS011;21187;50.976;13.720;2023-04-30T14:59:52;13.15;;;1.65;;
34982;SDS011;21187;50.976;13.720;2023-04-30T15:04:58;5.15;;;1.60;;
34982;SDS011;21187;50.976;13.720;2023-04-30T15:10:00;6.18;;;1.70;;
34982;SDS011;21187;50.976;13.720;2023-04-30T15:15:02;5.07;;;1.75;;
34982;SDS011;21187;50.976;13.720;2023-04-30T15:20:07;5.97;;;1.80;;
34982;SDS011;21187;50.976;13.720;2023-04-30T15:25:09;3.70;;;1.65;;
34982;SDS011;21187;50.976;13.720;2023-04-30T15:30:11;3.35;;;1.63;;
34982;SDS011;21187;50.976;13.720;2023-04-30T15:35:13;3.25;;;1.67;;
34982;SDS011;21187;50.976;13.720;2023-04-30T15:40:19;3.75;;;1.73;;
34982;SDS011;21187;50.976;13.720;2023-04-30T15:45:24;3.35;;;1.35;;
34982;SDS011;21187;50.976;13.720;2023-04-30T15:50:29;5.20;;;1.63;;
34982;SDS011;21187;50.976;13.720;2023-04-30T15:55:37;4.88;;;1.45;;
34982;SDS011;21187;50.976;13.720;2023-04-30T16:00:43;2.90;;;1.20;;
34982;SDS011;21187;50.976;13.720;2023-04-30T16:05:48;5.38;;;1.30;;
34982;SDS011;21187;50.976;13.720;2023-04-30T16:10:58;4.65;;;1.38;;
34982;SDS011;21187;50.976;13.720;2023-04-30T16:16:04;4.72;;;1.35;;
34982;SDS011;21187;50.976;13.720;2023-04-30T16:21:14;7.18;;;1.60;;
34982;SDS011;21187;50.976;13.720;2023-04-30T16:26:17;3.97;;;1.45;;
34982;SDS011;21187;50.976;13.720;2023-04-30T16:31:20;3.92;;;2.10;;
34982;SDS011;21187;50.976;13.720;2023-04-30T16:36:24;4.25;;;1.52;;
34982;SDS011;21187;50.976;13.720;2023-04-30T16:41:30;5.72;;;1.50;;
34982;SDS011;21187;50.976;13.720;2023-04-30T16:46:33;3.95;;;1.58;;
34982;SDS011;21187;50.976;13.720;2023-04-30T16:51:37;6.22;;;1.65;;
34982;SDS011;21187;50.976;13.720;2023-04-30T16:56:39;5.63;;;2.55;;
34982;SDS011;21187;50.976;13.720;2023-04-30T17:01:42;2.60;;;1.58;;
34982;SDS011;21187;50.976;13.720;2023-04-30T17:06:45;8.63;;;2.25;;
34982;SDS011;21187;50.976;13.720;2023-04-30T17:11:49;5.32;;;2.15;;
34982;SDS011;21187;50.976;13.720;2023-04-30T17:16:51;7.47;;;3.20;;
34982;SDS011;21187;50.976;13.720;2023-04-30T17:21:54;5.10;;;2.25;;
34982;SDS011;21187;50.976;13.720;2023-04-30T17:26:57;5.25;;;2.60;;
34982;SDS011;21187;50.976;13.720;2023-04-30T17:32:00;12.43;;;4.18;;
34982;SDS011;21187;50.976;13.720;2023-04-30T17:37:02;10.18;;;2.60;;
34982;SDS011;21187;50.976;13.720;2023-04-30T17:42:05;6.85;;;2.35;;
34982;SDS011;21187;50.976;13.720;2023-04-30T17:47:08;8.48;;;2.70;;
34982;SDS011;21187;50.976;13.720;2023-04-30T17:52:10;4.93;;;2.90;;
34982;SDS011;21187;50.976;13.720;2023-04-30T17:57:12;9.68;;;2.90;;
34982;SDS011;21187;50.976;13.720;2023-04-30T18:02:14;9.82;;;3.45;;
34982;SDS011;21187;50.976;13.720;2023-04-30T18:07:16;12.15;;;3.88;;
34982;SDS011;21187;50.976;13.720;2023-04-30T18:12:18;10.15;;;3.45;;
34982;SDS011;21187;50.976;13.720;2023-04-30T18:17:20;8.77;;;3.17;;
34982;SDS011;21187;50.976;13.720;2023-04-30T18:22:22;7.35;;;3.65;;
34982;SDS011;21187;50.976;13.720;2023-04-30T18:27:24;9.27;;;3.90;;
34982;SDS011;21187;50.976;13.720;2023-04-30T18:32:26;7.97;;;3.10;;
34982;SDS011;21187;50.976;13.720;2023-04-30T18:37:28;8.27;;;3.13;;
34982;SDS011;21187;50.976;13.720;2023-04-30T18:42:30;8.35;;;3.67;;
34982;SDS011;21187;50.976;13.720;2023-04-30T18:47:33;16.90;;;6.63;;
34982;SDS011;21187;50.976;13.720;2023-04-30T18:52:35;16.15;;;4.65;;
34982;SDS011;21187;50.976;13.720;2023-04-30T18:57:37;10.15;;;3.83;;
34982;SDS011;21187;50.976;13.720;2023-04-30T19:02:42;11.57;;;3.30;;
34982;SDS011;21187;50.976;13.720;2023-04-30T19:07:44;8.70;;;4.35;;
34982;SDS011;21187;50.976;13.720;2023-04-30T19:12:46;12.13;;;5.07;;
34982;SDS011;21187;50.976;13.720;2023-04-30T19:17:48;10.30;;;4.38;;
34982;SDS011;21187;50.976;13.720;2023-04-30T19:22:50;15.80;;;4.50;;
34982;SDS011;21187;50.976;13.720;2023-04-30T19:27:52;13.30;;;5.65;;
34982;SDS011;21187;50.976;13.720;2023-04-30T19:32:54;17.15;;;6.13;;
34982;SDS011;21187;50.976;13.720;2023-04-30T19:37:56;16.08;;;6.70;;
34982;SDS011;21187;50.976;13.720;2023-04-30T19:42:58;14.35;;;6.78;;
34982;SDS011;21187;50.976;13.720;2023-04-30T19:48:00;14.82;;;5.72;;
34982;SDS011;21187;50.976;13.720;2023-04-30T19:53:02;13.55;;;6.25;;
34982;SDS011;21187;50.976;13.720;2023-04-30T19:58:04;10.73;;;6.57;;
34982;SDS011;21187;50.976;13.720;2023-04-30T20:03:07;20.90;;;8.10;;
34982;SDS011;21187;50.976;13.720;2023-04-30T20:08:09;23.15;;;9.75;;
34982;SDS011;21187;50.976;13.720;2023-04-30T20:13:11;20.85;;;9.80;;
34982;SDS011;21187;50.976;13.720;2023-04-30T20:18:13;29.23;;;9.80;;
34982;SDS011;21187;50.976;13.720;2023-04-30T20:23:15;23.25;;;8.52;;
34982;SDS011;21187;50.976;13.720;2023-04-30T20:28:18;21.15;;;8.95;;
34982;SDS011;21187;50.976;13.720;2023-04-30T20:33:20;17.85;;;7.93;;
34982;SDS011;21187;50.976;13.720;2023-04-30T20:38:21;19.75;;;8.75;;
34982;SDS011;21187;50.976;13.720;2023-04-30T20:43:23;23.83;;;8.50;;
34982;SDS011;21187;50.976;13.720;2023-04-30T20:48:25;18.98;;;8.38;;
34982;SDS011;21187;50.976;13.720;2023-04-30T20:53:27;26.63;;;11.15;;
34982;SDS011;21187;50.976;13.720;2023-04-30T20:58:29;25.42;;;11.48;;
34982;SDS011;21187;50.976;13.720;2023-04-30T21:03:31;29.23;;;12.95;;
34982;SDS011;21187;50.976;13.720;2023-04-30T21:08:33;24.42;;;10.55;;
34982;SDS011;21187;50.976;13.720;2023-04-30T21:13:35;31.55;;;13.75;;
34982;SDS011;21187;50.976;13.720;2023-04-30T21:18:37;31.58;;;14.40;;
34982;SDS011;21187;50.976;13.720;2023-04-30T21:23:38;34.00;;;14.10;;
34982;SDS011;21187;50.976;13.720;2023-04-30T21:28:41;28.77;;;12.98;;
34982;SDS011;21187;50.976;13.720;2023-04-30T21:33:43;34.05;;;14.02;;
34982;SDS011;21187;50.976;13.720;2023-04-30T21:38:46;32.17;;;12.57;;
34982;SDS011;21187;50.976;13.720;2023-04-30T21:43:48;26.17;;;10.88;;
34982;SDS011;21187;50.976;13.720;2023-04-30T21:48:50;24.38;;;10.98;;
34982;SDS011;21187;50.976;13.720;2023-04-30T21:53:52;22.50;;;10.10;;
34982;SDS011;21187;50.976;13.720;2023-04-30T21:58:54;27.33;;;11.43;;
34982;SDS011;21187;50.976;13.720;2023-04-30T22:03:56;31.23;;;15.32;;
34982;SDS011;21187;50.976;13.720;2023-04-30T22:08:58;36.35;;;16.10;;
34982;SDS011;21187;50.976;13.720;2023-04-30T22:14:00;30.88;;;13.93;;
34982;SDS011;21187;50.976;13.720;2023-04-30T22:19:02;29.67;;;13.98;;
34982;SDS011;21187;50.976;13.720;2023-04-30T22:24:04;28.73;;;13.95;;
34982;SDS011;21187;50.976;13.720;2023-04-30T22:29:06;31.75;;;13.88;;
34982;SDS011;21187;50.976;13.720;2023-04-30T22:34:08;31.35;;;12.75;;
34982;SDS011;21187;50.976;13.720;2023-04-30T22:39:09;25.23;;;11.93;;
34982;SDS011;21187;50.976;13.720;2023-04-30T22:44:12;29.73;;;12.98;;
34982;SDS011;21187;50.976;13.720;2023-04-30T22:49:15;32.05;;;13.70;;
34982;SDS011;21187;50.976;13.720;2023-04-30T22:54:31;27.15;;;13.18;;
34982;SDS011;21187;50.976;13.720;2023-04-30T22:59:35;29.70;;;14.35;;
34982;SDS011;21187;50.976;13.720;2023-04-30T23:04:37;31.73;;;14.63;;
34982;SDS011;21187;50.976;13.720;2023-04-30T23:09:39;29.05;;;14.15;;
34982;SDS011;21187;50.976;13.720;2023-04-30T23:14:41;29.98;;;14.57;;
34982;SDS011;21187;50.976;13.720;2023-04-30T23:19:43;41.28;;;16.50;;
34982;SDS011;21187;50.976;13.720;2023-04-30T23:24:44;30.45;;;13.77;;
34982;SDS011;21187;50.976;13.720;2023-04-30T23:29:46;29.40;;;12.52;;
34982;SDS011;21187;50.976;13.720;2023-04-30T23:34:48;23.95;;;11.10;;
34982;SDS011;21187;50.976;13.720;2023-04-30T23:39:50;22.77;;;10.85;;
34982;SDS011;21187;50.976;13.720;2023-04-30T23:44:52;23.38;;;9.73;;
34982;SDS011;21187;50.976;13.720;2023-04-30T23:49:54;23.88;;;9.43;;
34982;SDS011;21187;50.976;13.720;2023-04-30T23:54:56;21.20;;;9.18;;
34982;SDS011;21187;50.976;13.720;2023-04-30T23:59:57;24.10;;;10.77;;
